createdAt,value
2019-01-04T00:03:06.065Z,102056.58
2019-01-04T00:08:10.044Z,102060.05
2019-01-04T00:13:14.056Z,102068.84
2019-01-04T00:18:18.118Z,102072.68
2019-01-04T00:23:22.157Z,102071.28
2019-01-04T00:28:26.255Z,102068.52
2019-01-04T00:33:30.408Z,102069.22
2019-01-04T00:38:34.363Z,102070.67
2019-01-04T00:43:38.488Z,102068.98
2019-01-04T00:48:42.440Z,102078.38
2019-01-04T00:53:46.593Z,102075.44
2019-01-04T00:59:40.617Z,102072.19
2019-01-04T01:05:34.094Z,102077.48
2019-01-04T01:11:14.040Z,102081.34
2019-01-04T01:17:02.621Z,102086.20
2019-01-04T01:23:08.716Z,102078.47
2019-01-04T01:29:08.837Z,102085.16
2019-01-04T01:34:50.627Z,102077.66
2019-01-04T01:40:31.304Z,102082.98
2019-01-04T01:46:18.283Z,102074.15
2019-01-04T01:51:33.366Z,102068.91
2019-01-04T01:56:37.687Z,102062.42
2019-01-04T02:01:41.483Z,102077.34
2019-01-04T02:06:45.486Z,102080.66
2019-01-04T02:11:49.276Z,102084.13
2019-01-04T02:16:53.091Z,102090.50
2019-01-04T02:21:56.959Z,102080.77
2019-01-04T02:27:00.989Z,102074.00
2019-01-04T02:32:04.874Z,102065.06
2019-01-04T02:37:08.703Z,102068.52
2019-01-04T02:42:12.796Z,102057.11
2019-01-04T02:47:16.828Z,102053.79
2019-01-04T02:52:20.766Z,102054.92
2019-01-04T02:57:24.554Z,102055.81
2019-01-04T03:02:28.586Z,102059.55
2019-01-04T03:07:32.601Z,102051.67
2019-01-04T03:12:36.551Z,102055.98
2019-01-04T03:17:40.466Z,102046.98
2019-01-04T03:22:44.527Z,102033.50
2019-01-04T03:27:48.502Z,102036.58
2019-01-04T03:32:52.502Z,102032.16
2019-01-04T03:37:56.309Z,102027.72
2019-01-04T03:43:00.195Z,102026.13
2019-01-04T03:48:05.779Z,102020.44
2019-01-04T03:53:09.740Z,102016.87
2019-01-04T03:58:13.862Z,102005.71
2019-01-04T04:03:17.700Z,102005.80
2019-01-04T04:08:21.623Z,101998.19
2019-01-04T04:13:25.460Z,101996.22
2019-01-04T04:18:29.539Z,101987.48
2019-01-04T04:23:33.286Z,101989.13
2019-01-04T04:28:37.269Z,101987.81
2019-01-04T04:33:41.085Z,101976.37
2019-01-04T04:38:45.117Z,101968.71
2019-01-04T04:43:49.259Z,101972.73
2019-01-04T04:48:53.165Z,101963.62
2019-01-04T04:53:56.987Z,101961.98
2019-01-04T04:59:00.844Z,101949.80
2019-01-04T05:04:04.955Z,101944.01
2019-01-04T05:09:08.806Z,101942.08
2019-01-04T05:14:12.761Z,101936.48
2019-01-04T05:19:16.661Z,101934.48
2019-01-04T05:24:20.463Z,101930.69
2019-01-04T05:29:24.365Z,101926.86
2019-01-04T05:34:28.477Z,101920.54
2019-01-04T05:39:32.428Z,101914.52
2019-01-04T05:44:36.399Z,101921.23
2019-01-04T05:49:40.308Z,101938.05
2019-01-04T05:54:44.353Z,101931.64
2019-01-04T05:59:48.105Z,101932.48
2019-01-04T06:04:52.135Z,101924.66
2019-01-04T06:09:56.097Z,101928.58
2019-01-04T06:15:00.021Z,101927.59
2019-01-04T06:20:04.252Z,101915.50
2019-01-04T06:25:08.145Z,101927.72
2019-01-04T06:30:12.173Z,101929.89
2019-01-04T06:35:16.423Z,101928.16
2019-01-04T06:40:20.291Z,101923.11
2019-01-04T06:45:24.129Z,101919.22
2019-01-04T06:50:28.058Z,101920.99
2019-01-04T06:56:01.766Z,101928.63
2019-01-04T07:01:05.655Z,101935.44
2019-01-04T07:06:09.572Z,101934.83
2019-01-04T07:11:13.409Z,101938.94
2019-01-04T07:16:17.304Z,101924.36
2019-01-04T07:21:21.077Z,101922.67
2019-01-04T07:26:24.953Z,101920.09
2019-01-04T07:31:28.801Z,101927.08
2019-01-04T07:36:32.541Z,101929.34
2019-01-04T07:41:36.395Z,101929.32
2019-01-04T07:46:40.159Z,101923.16
2019-01-04T07:51:44.032Z,101919.70
2019-01-04T07:56:47.813Z,101911.37
2019-01-04T08:01:51.595Z,101916.42
2019-01-04T08:06:55.437Z,101912.24
2019-01-04T08:11:59.382Z,101911.03
2019-01-04T08:17:03.184Z,101895.54
2019-01-04T08:22:07.383Z,101882.39
2019-01-04T08:27:11.327Z,101879.59
2019-01-04T08:32:15.326Z,101888.68
2019-01-04T08:37:19.278Z,101887.37
2019-01-04T08:42:23.189Z,101877.44
2019-01-04T08:47:27.160Z,101872.61
2019-01-04T08:52:31.054Z,101860.45
2019-01-04T08:57:34.839Z,101848.45
2019-01-04T09:02:38.667Z,101836.53
2019-01-04T09:07:42.440Z,101837.87
2019-01-04T09:12:46.316Z,101842.89
2019-01-04T09:17:50.318Z,101835.56
2019-01-04T09:22:54.137Z,101835.04
2019-01-04T09:27:58.031Z,101837.86
2019-01-04T09:33:01.854Z,101845.93
2019-01-04T09:38:05.748Z,101841.31
2019-01-04T09:43:09.659Z,101823.70
2019-01-04T09:48:13.647Z,101818.86
2019-01-04T09:53:17.540Z,101827.18
2019-01-04T09:58:21.475Z,101818.81
2019-01-04T10:03:25.273Z,101784.05
2019-01-04T10:08:29.228Z,101788.14
2019-01-04T10:13:33.146Z,101761.31
2019-01-04T10:18:37.086Z,101756.27
2019-01-04T10:23:40.946Z,101750.37
2019-01-04T10:28:49.614Z,101723.23
2019-01-04T10:33:53.386Z,101709.97
2019-01-04T10:38:57.296Z,101703.80
2019-01-04T10:44:01.094Z,101692.37
2019-01-04T10:49:04.902Z,101680.68
2019-01-04T10:54:08.905Z,101662.91
2019-01-04T10:59:12.885Z,101660.30
2019-01-04T11:04:16.648Z,101652.33
2019-01-04T11:09:20.622Z,101637.06
2019-01-04T11:14:24.402Z,101624.92
2019-01-04T11:19:28.266Z,101607.59
2019-01-04T11:25:07.584Z,101614.33
2019-01-04T11:30:43.482Z,101593.70
2019-01-04T11:36:49.878Z,101579.19
2019-01-04T11:42:23.184Z,101579.63
2019-01-04T11:47:56.394Z,101543.62
2019-01-04T11:53:06.265Z,101539.41
2019-01-04T11:58:10.043Z,101543.11
2019-01-04T12:03:13.780Z,101529.17
2019-01-04T12:08:17.553Z,101529.39
2019-01-04T12:13:21.293Z,101520.00
2019-01-04T12:18:25.084Z,101506.80
2019-01-04T12:23:28.995Z,101502.72
2019-01-04T12:28:32.805Z,101492.97
2019-01-04T12:33:36.566Z,101488.71
2019-01-04T12:38:40.346Z,101482.73
2019-01-04T12:43:47.844Z,101467.27
2019-01-04T12:48:49.858Z,101463.53
2019-01-04T12:53:53.732Z,101444.20
2019-01-04T12:58:57.504Z,101435.67
2019-01-04T13:04:01.273Z,101412.61
2019-01-04T13:09:06.715Z,101398.83
2019-01-04T13:14:10.456Z,101401.27
2019-01-04T13:19:14.363Z,101370.47
2019-01-04T13:24:18.318Z,101370.47
2019-01-04T13:29:22.081Z,101363.34
2019-01-04T13:34:25.921Z,101364.83
2019-01-04T13:39:29.702Z,101388.58
2019-01-04T13:44:33.461Z,101408.28
2019-01-04T13:49:37.327Z,101396.72
2019-01-04T13:54:41.146Z,101398.86
2019-01-04T13:59:44.992Z,101421.14
2019-01-04T14:04:48.743Z,101420.50
2019-01-04T14:09:52.558Z,101402.05
2019-01-04T14:14:56.363Z,101400.91
2019-01-04T14:20:00.215Z,101397.62
2019-01-04T14:25:04.209Z,101403.02
2019-01-04T14:30:09.801Z,101398.64
2019-01-04T14:35:14.682Z,101405.03
2019-01-04T14:40:18.499Z,101375.14
2019-01-04T14:45:22.322Z,101383.91
2019-01-04T14:50:26.188Z,101373.17
2019-01-04T14:55:30.028Z,101358.98
2019-01-04T15:00:33.766Z,101355.61
2019-01-04T15:05:37.567Z,101352.51
2019-01-04T15:10:41.304Z,101354.34
2019-01-04T15:15:45.037Z,101343.56
2019-01-04T15:20:48.821Z,101343.97
2019-01-04T15:25:52.557Z,101341.42
2019-01-04T15:30:56.337Z,101334.50
2019-01-04T15:36:00.071Z,101335.11
2019-01-04T15:41:03.806Z,101325.70
2019-01-04T15:46:07.537Z,101339.92
2019-01-04T15:51:11.318Z,101315.70
2019-01-04T15:56:15.055Z,101301.94
2019-01-04T16:01:18.883Z,101291.30
2019-01-04T16:06:22.609Z,101307.89
2019-01-04T16:11:26.409Z,101287.30
2019-01-04T16:16:30.136Z,101276.53
2019-01-04T16:21:33.857Z,101270.65
2019-01-04T16:26:37.616Z,101261.80
2019-01-04T16:31:41.330Z,101264.95
2019-01-04T16:36:46.074Z,101244.77
2019-01-04T16:41:49.870Z,101249.70
2019-01-04T16:46:53.625Z,101246.67
2019-01-04T16:51:57.421Z,101253.80
2019-01-04T16:57:01.286Z,101236.78
2019-01-04T17:02:05.460Z,101236.13
2019-01-04T17:07:09.179Z,101223.37
2019-01-04T17:12:12.897Z,101232.59
2019-01-04T17:17:16.642Z,101228.19
2019-01-04T17:22:20.404Z,101231.70
2019-01-04T17:27:24.132Z,101224.63
2019-01-04T17:32:27.984Z,101237.70
2019-01-04T17:37:31.727Z,101228.36
2019-01-04T17:42:35.454Z,101241.50
2019-01-04T17:47:39.223Z,101245.39
2019-01-04T17:52:42.964Z,101244.64
2019-01-04T17:57:46.669Z,101240.20
2019-01-04T18:02:50.472Z,101255.45
2019-01-04T18:07:54.243Z,101250.84
2019-01-04T18:12:58.031Z,101244.66
2019-01-04T18:18:01.768Z,101243.90
2019-01-04T18:23:05.641Z,101235.87
2019-01-04T18:28:09.355Z,101245.56
2019-01-04T18:33:13.126Z,101234.41
2019-01-04T18:38:16.864Z,101236.91
2019-01-04T18:43:20.579Z,101229.52
2019-01-04T18:48:24.349Z,101226.30
2019-01-04T18:53:28.093Z,101232.29
2019-01-04T18:58:31.825Z,101237.66
2019-01-04T19:03:35.571Z,101234.47
2019-01-04T19:08:39.338Z,101232.53
2019-01-04T19:13:43.074Z,101239.12
2019-01-04T19:18:46.805Z,101233.43
2019-01-04T19:23:50.561Z,101240.11
2019-01-04T19:28:54.317Z,101239.87
2019-01-04T19:33:58.070Z,101242.41
2019-01-04T19:39:01.822Z,101245.03
2019-01-04T19:44:05.546Z,101234.33
2019-01-04T19:49:09.287Z,101234.33
2019-01-04T19:54:13.146Z,101234.20
2019-01-04T19:59:16.946Z,101230.45
2019-01-04T20:04:20.662Z,101226.30
2019-01-04T20:10:24.918Z,101226.56
2019-01-04T20:16:21.866Z,101217.95
2019-01-04T20:21:47.088Z,101210.58
2019-01-04T20:27:12.517Z,101201.12
2019-01-04T20:32:33.936Z,101208.05
2019-01-04T20:38:06.040Z,101199.60
2019-01-04T20:43:25.057Z,101193.63
2019-01-04T20:48:41.658Z,101197.07
2019-01-04T20:53:56.705Z,101190.63
2019-01-04T20:59:14.253Z,101177.16
2019-01-04T21:04:39.833Z,101176.18
2019-01-04T21:09:53.851Z,101179.78
2019-01-04T21:15:18.781Z,101180.51
2019-01-04T21:20:41.555Z,101161.06
2019-01-04T21:26:13.919Z,101148.80
2019-01-04T21:31:39.922Z,101139.97
2019-01-04T21:37:11.436Z,101131.75
2019-01-04T21:42:32.459Z,101128.52
2019-01-04T21:48:04.262Z,101127.20
2019-01-04T21:53:25.970Z,101115.64
2019-01-04T21:58:47.450Z,101109.45
2019-01-04T22:04:08.723Z,101099.17
2019-01-04T22:09:31.562Z,101099.17
2019-01-04T22:14:50.629Z,101090.95
2019-01-04T22:20:12.317Z,101105.04
2019-01-04T22:25:37.936Z,101107.77
2019-01-04T22:30:55.650Z,101087.50
2019-01-04T22:36:20.671Z,101075.69
2019-01-04T22:41:46.305Z,101072.72
2019-01-04T22:47:05.577Z,101072.94
2019-01-04T22:52:28.294Z,101071.76
2019-01-04T22:57:49.743Z,101051.46
2019-01-04T23:03:12.615Z,101045.98
2019-01-04T23:08:40.256Z,101036.19
2019-01-04T23:14:02.156Z,101025.20
2019-01-04T23:19:31.042Z,101032.12
2019-01-04T23:24:56.649Z,101026.77
2019-01-04T23:30:37.833Z,100999.78
2019-01-04T23:36:18.977Z,100995.00
2019-01-04T23:41:47.853Z,101002.75
2019-01-04T23:47:07.243Z,101002.52
2019-01-04T23:52:33.133Z,100986.98
2019-01-04T23:57:55.200Z,100992.98
